createdAt,value
2022-12-16T00:01:10.383Z,101167.38
2022-12-16T00:11:32.453Z,101164.66
2022-12-16T00:21:53.798Z,101178.09
2022-12-16T00:32:16.127Z,101180.44
2022-12-16T00:42:37.469Z,101181.25
2022-12-16T00:52:58.930Z,101187.19
2022-12-16T01:03:21.970Z,101180.22
2022-12-16T01:13:44.015Z,101192.81
2022-12-16T01:24:05.600Z,101197.97
2022-12-16T01:34:27.011Z,101196.06
2022-12-16T01:44:49.464Z,101219.97
2022-12-16T01:55:18.815Z,101221.66
2022-12-16T02:05:41.576Z,101236.97
2022-12-16T02:16:02.909Z,101241.25
2022-12-16T02:26:25.078Z,101241.31
2022-12-16T02:36:49.451Z,101228.84
2022-12-16T02:47:10.797Z,101242.50
2022-12-16T02:57:41.332Z,101255.34
2022-12-16T03:08:05.887Z,101252.81
2022-12-16T03:18:27.463Z,101264.75
2022-12-16T03:28:49.604Z,101263.88
2022-12-16T03:39:14.532Z,101281.69
2022-12-16T03:49:35.917Z,101288.56
2022-12-16T03:59:57.275Z,101297.88
2022-12-16T04:10:38.637Z,101301.28
2022-12-16T04:21:18.637Z,101317.31
2022-12-16T04:31:39.994Z,101319.09
2022-12-16T04:42:20.083Z,101329.34
2022-12-16T04:53:00.097Z,101337.09
2022-12-16T05:03:40.181Z,101341.47
2022-12-16T05:14:20.365Z,101345.66
2022-12-16T05:25:00.509Z,101368.72
2022-12-16T05:35:40.599Z,101375.47
2022-12-16T05:46:20.848Z,101391.59
2022-12-16T05:57:01.053Z,101402.53
2022-12-16T06:07:41.094Z,101411.69
2022-12-16T06:18:21.176Z,101417.53
2022-12-16T06:29:01.311Z,101430.28
2022-12-16T06:39:41.990Z,101445.63
2022-12-16T06:50:22.544Z,101458.31
2022-12-16T07:01:02.962Z,101478.03
2022-12-16T07:11:43.374Z,101495.09
2022-12-16T07:22:23.539Z,101513.91
2022-12-16T07:33:03.726Z,101531.00
2022-12-16T07:43:43.760Z,101558.31
2022-12-16T07:54:23.872Z,101571.69
2022-12-16T08:05:04.062Z,101595.34
2022-12-16T08:15:44.160Z,101611.53
2022-12-16T08:26:24.434Z,101630.09
2022-12-16T08:37:04.669Z,101641.91
2022-12-16T08:47:44.906Z,101666.13
2022-12-16T08:58:25.039Z,101679.00
2022-12-16T09:09:05.229Z,101683.47
2022-12-16T09:19:45.312Z,101696.16
2022-12-16T09:30:25.344Z,101712.50
2022-12-16T09:41:05.297Z,101713.31
2022-12-16T09:51:45.884Z,101725.41
2022-12-16T10:02:30.452Z,101733.31
2022-12-16T10:13:30.280Z,101739.50
2022-12-16T10:24:13.701Z,101746.63
2022-12-16T10:34:54.775Z,101753.56
2022-12-16T10:45:47.684Z,101765.63
2022-12-16T10:56:46.882Z,101767.22
2022-12-16T11:07:40.668Z,101772.47
2022-12-16T11:18:22.312Z,101779.41
2022-12-16T11:29:02.486Z,101776.72
2022-12-16T11:39:44.563Z,101776.69
2022-12-16T11:50:27.586Z,101789.53
2022-12-16T12:01:18.375Z,101788.06
2022-12-16T12:12:21.779Z,101792.44
2022-12-16T12:23:01.873Z,101798.69
2022-12-16T12:33:48.055Z,101793.59
2022-12-16T12:44:48.621Z,101807.53
2022-12-16T12:55:35.458Z,101816.88
2022-12-16T13:06:16.547Z,101824.44
2022-12-16T13:17:02.949Z,101818.63
2022-12-16T13:27:43.559Z,101828.78
2022-12-16T13:38:25.176Z,101843.38
2022-12-16T13:49:05.411Z,101847.78
2022-12-16T13:59:48.163Z,101860.59
2022-12-16T14:10:43.719Z,101872.59
2022-12-16T14:21:23.887Z,101889.72
2022-12-16T14:32:04.153Z,101901.66
2022-12-16T14:42:45.932Z,101922.00
2022-12-16T14:53:48.793Z,101940.63
2022-12-16T15:04:47.240Z,101947.19
2022-12-16T15:15:32.176Z,101958.81
2022-12-16T15:26:14.407Z,101975.81
2022-12-16T15:36:55.624Z,101990.25
2022-12-16T15:47:38.816Z,101992.91
2022-12-16T15:58:19.396Z,102004.75
2022-12-16T16:08:59.609Z,102009.84
2022-12-16T16:19:44.197Z,102025.13
2022-12-16T16:30:24.231Z,102014.88
2022-12-16T16:41:04.300Z,102038.75
2022-12-16T16:51:44.303Z,102042.91
2022-12-16T17:02:40.251Z,102057.28
2022-12-16T17:13:21.120Z,102061.53
2022-12-16T17:24:01.194Z,102062.28
2022-12-16T17:34:41.256Z,102083.56
2022-12-16T17:45:21.438Z,102086.16
2022-12-16T17:56:01.602Z,102103.97
2022-12-16T18:06:41.731Z,102132.03
2022-12-16T18:17:22.006Z,102141.31
2022-12-16T18:28:02.209Z,102147.06
2022-12-16T18:38:42.300Z,102143.53
2022-12-16T18:49:22.376Z,102148.53
2022-12-16T19:00:02.590Z,102162.16
2022-12-16T19:10:42.663Z,102194.38
2022-12-16T19:21:22.949Z,102196.91
2022-12-16T19:32:03.082Z,102194.28
2022-12-16T19:42:43.239Z,102213.88
2022-12-16T19:53:23.574Z,102217.03
2022-12-16T20:04:03.746Z,102220.13
2022-12-16T20:14:43.957Z,102228.38
2022-12-16T20:25:24.143Z,102237.53
2022-12-16T20:36:13.265Z,102241.00
2022-12-16T20:46:56.221Z,102265.97
2022-12-16T20:57:36.450Z,102282.53
2022-12-16T21:08:16.403Z,102293.72
2022-12-16T21:18:56.364Z,102289.25
2022-12-16T21:29:36.748Z,102292.28
2022-12-16T21:40:16.711Z,102313.31
2022-12-16T21:50:56.604Z,102321.25
2022-12-16T22:01:36.590Z,102335.38
2022-12-16T22:12:16.602Z,102333.38
2022-12-16T22:22:56.770Z,102343.00
2022-12-16T22:33:36.822Z,102347.16
2022-12-16T22:44:16.954Z,102361.69
2022-12-16T22:54:57.062Z,102361.94
2022-12-16T23:05:44.666Z,102365.84
2022-12-16T23:16:24.777Z,102375.75
2022-12-16T23:27:04.867Z,102387.28
2022-12-16T23:37:44.978Z,102408.50
2022-12-16T23:48:26.043Z,102405.56
2022-12-16T23:59:06.716Z,102405.91
